Nearby METAR Reports

 

EGEO - Oban, United Kingdom
Distance from station: SSW 18mi, 30km
Updated: 24/01/2022 15:50
NOT Current
Nearby showers, Mostly cloudy
Nearby showers, Mostly cloudy
 Wind from SE
Wind: SE 5 mph , 7 km/h
Temperature: 8°C
Wind Chill: 7°C
Dew Point: 6°C
Humidity: 87%
Barometer: 1030 hPa
Summary: Nearby Showers
Clouds: Mostly cloudy
Visibility: 6 miles , 9 km
Cloud details: Mostly cloudy 549 m
2022/01/24 15:50 EGEO 241550Z 13004KT 110V170 9000 VCSH BKN018 08/06 Q1030
EGPU - Tiree, United Kingdom
Distance from station: WSW 64mi, 103km
Updated: 25/01/2022 00:50
Overcast
Overcast
 Wind from SSW
Wind: SSW 13 mph , 20 km/h
Temperature: 8°C
Wind Chill: 4°C
Dew Point: 7°C
Humidity: 93%
Barometer: 1030 hPa
Clouds: Overcast
Visibility: 6 miles , 10 km
Cloud details: Few Clouds 305 m
Overcast 732 m
2022/01/25 00:50 EGPU 250050Z AUTO 21011KT 180V240 9999 FEW010/// OVC024/// 08/07 Q1030
EGPF - Glasgow, United Kingdom
Distance from station: SSE 66mi, 107km
Updated: 25/01/2022 00:50
Overcast
Overcast
 Wind from SSW
Wind: SSW 6 mph , 9 km/h
Temperature: 7°C
Wind Chill: 6°C
Dew Point: 4°C
Humidity: 81%
Barometer: 1033 hPa
Clouds: Overcast
Visibility: 6 miles , 10 km
Cloud details: Overcast 640 m
2022/01/25 00:50 EGPF 250050Z AUTO 20005KT 9999 OVC021 07/04 Q1033
 
EGPE - Inverness, United Kingdom
Distance from station: NE 71mi, 114km
Updated: 25/01/2022 00:50
Mostly cloudy
Mostly cloudy
 Wind from SW
Wind: SW 7 mph , 11 km/h
Temperature: 7°C
Wind Chill: 5°C
Dew Point: 5°C
Humidity: 87%
Barometer: 1029 hPa
Clouds: Mostly cloudy
Visibility: 6 miles , 10 km
Cloud details: Few Clouds 701 m
Mostly cloudy 1189 m
2022/01/25 00:50 EGPE 250050Z AUTO 22006KT 9999 FEW023/// BKN039/// 07/05 Q1029
EGPI - Islay/Port Ellen, United Kingdom
Distance from station: SSW 81mi, 131km
Updated: 25/01/2022 00:50
Overcast
Overcast
 Wind from S
Wind: S 10 mph , 17 km/h
Temperature: 6°C
Wind Chill: 3°C
Dew Point: 4°C
Humidity: 87%
Barometer: 1032 hPa
Clouds: Overcast
Visibility: 6 miles , 10 km
Cloud details: Overcast 549 m
2022/01/25 00:50 EGPI 250050Z AUTO 19009KT 140V210 9999 OVC018/// 06/04 Q1032
EGPN - Dundee/Riverside, United Kingdom
Distance from station: E 86mi, 138km
Updated: 24/01/2022 20:50
NOT Current
Partly cloudy
Partly cloudy
 Wind from W
Wind: W 5 mph , 7 km/h
Temperature: 5°C
Wind Chill: 3°C
Dew Point: 5°C
Humidity: 100%
Barometer: 1031 hPa
Clouds: Partly cloudy
Visibility: 6 miles , 10 km
Cloud details: Partly cloudy 610 m
2022/01/24 20:50 EGPN 242050Z 27004KT 9999 SCT020 05/05 Q1031
 
EGPK - Prestwick, United Kingdom
Distance from station: SSE 88mi, 141km
Updated: 25/01/2022 00:50
Overcast
Overcast
 Wind from SSW
Wind: SSW 10 mph , 17 km/h
Temperature: 7°C
Wind Chill: 4°C
Dew Point: 4°C
Humidity: 81%
Barometer: 1033 hPa
Clouds: Overcast
Visibility: 6 miles , 10 km
Cloud details: Overcast 457 m
2022/01/25 00:50 EGPK 250050Z 20009KT 9999 OVC015 07/04 Q1033
EGPH - Edinburgh, United Kingdom
Distance from station: SE 89mi, 143km
Updated: 25/01/2022 00:50
Overcast
Overcast
 Wind from WSW
Wind: WSW 7 mph , 11 km/h
Temperature: 6°C
Wind Chill: 4°C
Dew Point: 4°C
Humidity: 87%
Barometer: 1032 hPa
Clouds: Overcast
Visibility: 6 miles , 10 km
Cloud details: Overcast 518 m
2022/01/25 00:50 EGPH 250050Z 24006KT 9999 OVC017 06/04 Q1032
EGQK - RAF Kinloss, United Kingdom
Distance from station: NE 90mi, 144km
Updated: 25/01/2022 00:50
Mostly cloudy
Mostly cloudy
 Wind from SSW
Wind: SSW 6 mph , 9 km/h
Temperature: 8°C
Wind Chill: 6°C
Dew Point: 4°C
Humidity: 76%
Barometer: 1029 hPa
Clouds: Mostly cloudy
Visibility: 6 miles , 10 km
Cloud details: Few Clouds 1280 m
Partly cloudy 1494 m
Mostly cloudy 2134 m
2022/01/25 00:50 EGQK 250050Z AUTO 21005KT 9999 FEW042/// SCT049/// BKN070/// 08/04 Q1029
 
EGEC - Campbeltown, United Kingdom
Distance from station: S 90mi, 145km
Updated: 24/01/2022 17:20
NOT Current
Few Clouds
Few Clouds
 Wind from SE
Wind: SE 8 mph , 13 km/h
Temperature: 6°C
Wind Chill: 3°C
Dew Point: 4°C
Humidity: 87%
Barometer: 1031 hPa
Clouds: Few Clouds
Visibility: 6 miles , 10 km
Cloud details: Few Clouds 610 m
2022/01/24 17:20 EGEC 241720Z 14007KT 9999 FEW020 06/04 Q1031
EGQA - Tain Range, United Kingdom
Distance from station: NNE 91mi, 146km
Updated: 20/01/2022 11:50
NOT Current
Partly cloudy
Partly cloudy
 Wind from W
Wind: W 9 mph , 15 km/h
Clouds: Partly cloudy
Visibility: 6 miles , 10 km
Cloud details: Partly cloudy 671 m
2022/01/20 11:50 EGQA 201150Z 26008KT 9999 SCT022 07/// Q1037 RMK WHT
EGQL - RAF Leuchars, United Kingdom
Distance from station: ESE 93mi, 149km
Updated: 25/01/2022 00:50
Clear
Clear
 Wind from W
Wind: W 12 mph , 19 km/h
Temperature: 5°C
Wind Chill: 1°C
Dew Point: 3°C
Humidity: 87%
Barometer: 1031 hPa
Summary: Clear
Visibility: greater than 7 miles , 10 km
2022/01/25 00:50 EGQL 250050Z 26010KT CAVOK 05/03 Q1031 RMK BLU
 
EGPL - Benbecula, United Kingdom
Distance from station: WNW 96mi, 154km
Updated: 25/01/2022 00:50
Overcast
Overcast
 Wind from S
Wind: S 14 mph , 22 km/h
Temperature: 9°C
Wind Chill: 6°C
Dew Point: 8°C
Humidity: 94%
Barometer: 1028 hPa
Clouds: Overcast
Visibility: 6 miles , 10 km
Cloud details: Mostly cloudy 244 m
Overcast 975 m
2022/01/25 00:50 EGPL 250050Z AUTO 19012KT 9999 BKN008/// OVC032/// 09/08 Q1028
EGQS - RAF Lossiemouth, United Kingdom
Distance from station: NE 99mi, 160km
Updated: 25/01/2022 00:50
Mostly cloudy
Mostly cloudy
 Wind from SSW
Wind: SSW 7 mph , 11 km/h
Temperature: 7°C
Wind Chill: 5°C
Dew Point: 4°C
Humidity: 81%
Barometer: 1029 hPa
Clouds: Mostly cloudy
Visibility: 6 miles , 10 km
Cloud details: Mostly cloudy 1463 m
2022/01/25 00:50 EGQS 250050Z 20006KT 9999 BKN048 07/04 Q1029 RMK BLU
EGPO - Stornoway, United Kingdom
Distance from station: NNW 111mi, 179km
Updated: 25/01/2022 00:50
Overcast
Overcast
 Wind from SSW
Wind: SSW 15 mph , 24 km/h
Temperature: 8°C
Wind Chill: 4°C
Dew Point: 8°C
Humidity: 100%
Barometer: 1027 hPa
Clouds: Overcast
Visibility: 6 miles , 10 km
Cloud details: Partly cloudy 549 m
Mostly cloudy 792 m
Overcast 1128 m
2022/01/25 00:50 EGPO 250050Z AUTO 20013KT 9999 SCT018/// BKN026/// OVC037/// 08/08 Q1027
 
EGPD - Aberdeen/Dyce, United Kingdom
Distance from station: ENE 118mi, 190km
Updated: 25/01/2022 00:50
Clear
Clear
 Wind from varies
Wind: varies 1 mph , 2 km/h
Temperature: 6°C
Dew Point: 4°C
Humidity: 87%
Barometer: 1030 hPa
Clouds: Clear
Visibility: 6 miles , 10 km
2022/01/25 00:50 EGPD 250050Z AUTO VRB01KT 9999 NCD 06/04 Q1030 NOSIG
EGAE - Eglinton/Londond, United Kingdom
Distance from station: SSW 138mi, 222km
Updated: 24/01/2022 20:20
NOT Current
Mostly cloudy
Mostly cloudy
 Wind from SSW
Wind: SSW 3 mph , 6 km/h
Temperature: 7°C
Dew Point: 5°C
Humidity: 87%
Barometer: 1032 hPa
Clouds: Mostly cloudy
Visibility: 6 miles , 10 km
Cloud details: Mostly cloudy 549 m
2022/01/24 20:20 EGAE 242020Z 21003KT 170V240 9999 BKN018 07/05 Q1032
EGPC - Wick, United Kingdom
Distance from station: NNE 144mi, 232km
Updated: 25/01/2022 00:50
Overcast
Overcast
 Wind from varies
Wind: varies 2 mph , 4 km/h
Temperature: 7°C
Dew Point: 6°C
Humidity: 93%
Barometer: 1028 hPa
Clouds: Overcast
Visibility: 6 miles , 10 km
Cloud details: Overcast 1189 m
2022/01/25 00:50 EGPC 250050Z AUTO VRB02KT 9999 OVC039/// 07/06 Q1028

Metar display script from Saratoga-Weather.org